sensor_id;sensor_type;location;lat;lon;timestamp;P1;durP1;ratioP1;P2;durP2;ratioP2
28343;SDS011;15597;50.914;6.638;2023-02-28T00:00:10;5.05;;;2.00;;
28343;SDS011;15597;50.914;6.638;2023-02-28T00:02:39;4.97;;;1.90;;
28343;SDS011;15597;50.914;6.638;2023-02-28T00:05:06;4.47;;;1.80;;
28343;SDS011;15597;50.914;6.638;2023-02-28T00:07:33;4.90;;;1.67;;
28343;SDS011;15597;50.914;6.638;2023-02-28T00:09:58;5.45;;;1.77;;
28343;SDS011;15597;50.914;6.638;2023-02-28T00:12:25;3.67;;;1.70;;
28343;SDS011;15597;50.914;6.638;2023-02-28T00:14:50;4.25;;;1.65;;
28343;SDS011;15597;50.914;6.638;2023-02-28T00:17:16;5.10;;;2.00;;
28343;SDS011;15597;50.914;6.638;2023-02-28T00:19:49;4.57;;;1.80;;
28343;SDS011;15597;50.914;6.638;2023-02-28T00:22:20;6.15;;;2.35;;
28343;SDS011;15597;50.914;6.638;2023-02-28T00:24:46;7.25;;;2.28;;
28343;SDS011;15597;50.914;6.638;2023-02-28T00:27:12;6.60;;;2.40;;
28343;SDS011;15597;50.914;6.638;2023-02-28T00:29:39;6.00;;;1.90;;
28343;SDS011;15597;50.914;6.638;2023-02-28T00:32:05;6.65;;;2.22;;
28343;SDS011;15597;50.914;6.638;2023-02-28T00:34:31;7.35;;;2.40;;
28343;SDS011;15597;50.914;6.638;2023-02-28T00:37:06;5.25;;;2.03;;
28343;SDS011;15597;50.914;6.638;2023-02-28T00:39:34;4.03;;;1.65;;
28343;SDS011;15597;50.914;6.638;2023-02-28T00:42:01;5.85;;;1.95;;
28343;SDS011;15597;50.914;6.638;2023-02-28T00:44:27;5.65;;;2.03;;
28343;SDS011;15597;50.914;6.638;2023-02-28T00:46:53;4.82;;;1.70;;
28343;SDS011;15597;50.914;6.638;2023-02-28T00:49:23;6.07;;;2.35;;
28343;SDS011;15597;50.914;6.638;2023-02-28T00:51:49;4.80;;;1.92;;
28343;SDS011;15597;50.914;6.638;2023-02-28T00:54:15;4.57;;;1.80;;
28343;SDS011;15597;50.914;6.638;2023-02-28T00:56:46;6.43;;;2.13;;
28343;SDS011;15597;50.914;6.638;2023-02-28T00:59:13;5.80;;;2.13;;
28343;SDS011;15597;50.914;6.638;2023-02-28T01:01:40;5.90;;;1.98;;
28343;SDS011;15597;50.914;6.638;2023-02-28T01:04:06;3.85;;;1.52;;
28343;SDS011;15597;50.914;6.638;2023-02-28T01:06:32;5.80;;;1.83;;
28343;SDS011;15597;50.914;6.638;2023-02-28T01:08:58;5.35;;;2.05;;
28343;SDS011;15597;50.914;6.638;2023-02-28T01:11:24;4.70;;;2.10;;
28343;SDS011;15597;50.914;6.638;2023-02-28T01:13:52;6.00;;;1.95;;
28343;SDS011;15597;50.914;6.638;2023-02-28T01:16:17;6.65;;;1.92;;
28343;SDS011;15597;50.914;6.638;2023-02-28T01:18:44;5.90;;;2.20;;
28343;SDS011;15597;50.914;6.638;2023-02-28T01:21:11;5.95;;;1.95;;
28343;SDS011;15597;50.914;6.638;2023-02-28T01:23:39;4.72;;;1.80;;
28343;SDS011;15597;50.914;6.638;2023-02-28T01:28:31;5.28;;;2.30;;
28343;SDS011;15597;50.914;6.638;2023-02-28T01:30:57;4.70;;;1.90;;
28343;SDS011;15597;50.914;6.638;2023-02-28T01:33:22;5.38;;;1.88;;
28343;SDS011;15597;50.914;6.638;2023-02-28T01:35:48;5.40;;;2.15;;
28343;SDS011;15597;50.914;6.638;2023-02-28T01:38:14;5.45;;;2.20;;
28343;SDS011;15597;50.914;6.638;2023-02-28T01:40:40;3.72;;;1.58;;
28343;SDS011;15597;50.914;6.638;2023-02-28T01:43:12;5.20;;;1.92;;
28343;SDS011;15597;50.914;6.638;2023-02-28T01:45:45;7.07;;;2.22;;
28343;SDS011;15597;50.914;6.638;2023-02-28T01:48:11;5.75;;;2.00;;
28343;SDS011;15597;50.914;6.638;2023-02-28T01:50:39;3.92;;;1.63;;
28343;SDS011;15597;50.914;6.638;2023-02-28T01:53:10;4.78;;;1.83;;
28343;SDS011;15597;50.914;6.638;2023-02-28T01:55:42;4.95;;;1.80;;
28343;SDS011;15597;50.914;6.638;2023-02-28T01:58:10;5.05;;;1.90;;
28343;SDS011;15597;50.914;6.638;2023-02-28T02:00:36;4.70;;;1.95;;
28343;SDS011;15597;50.914;6.638;2023-02-28T02:03:06;4.15;;;1.92;;
28343;SDS011;15597;50.914;6.638;2023-02-28T02:05:35;6.20;;;2.15;;
28343;SDS011;15597;50.914;6.638;2023-02-28T02:08:09;4.30;;;1.88;;
28343;SDS011;15597;50.914;6.638;2023-02-28T02:10:41;6.80;;;2.22;;
28343;SDS011;15597;50.914;6.638;2023-02-28T02:18:53;5.63;;;1.60;;
28343;SDS011;15597;50.914;6.638;2023-02-28T02:27:48;4.40;;;1.83;;
28343;SDS011;15597;50.914;6.638;2023-02-28T02:29:59;5.13;;;1.67;;
28343;SDS011;15597;50.914;6.638;2023-02-28T02:35:34;5.45;;;1.90;;
28343;SDS011;15597;50.914;6.638;2023-02-28T02:38:06;4.88;;;1.88;;
28343;SDS011;15597;50.914;6.638;2023-02-28T02:40:46;3.88;;;1.52;;
28343;SDS011;15597;50.914;6.638;2023-02-28T02:43:25;4.10;;;1.88;;
28343;SDS011;15597;50.914;6.638;2023-02-28T02:45:59;5.03;;;1.50;;
28343;SDS011;15597;50.914;6.638;2023-02-28T02:48:32;4.90;;;1.65;;
28343;SDS011;15597;50.914;6.638;2023-02-28T02:51:01;6.05;;;2.05;;
28343;SDS011;15597;50.914;6.638;2023-02-28T02:53:41;6.68;;;2.17;;
28343;SDS011;15597;50.914;6.638;2023-02-28T02:56:15;5.00;;;1.92;;
28343;SDS011;15597;50.914;6.638;2023-02-28T02:58:44;4.25;;;1.77;;
28343;SDS011;15597;50.914;6.638;2023-02-28T03:01:16;3.53;;;1.50;;
28343;SDS011;15597;50.914;6.638;2023-02-28T03:03:56;6.30;;;1.90;;
28343;SDS011;15597;50.914;6.638;2023-02-28T03:06:25;6.03;;;1.92;;
28343;SDS011;15597;50.914;6.638;2023-02-28T03:08:51;4.80;;;2.00;;
28343;SDS011;15597;50.914;6.638;2023-02-28T03:11:17;5.15;;;1.90;;
28343;SDS011;15597;50.914;6.638;2023-02-28T03:19:17;4.20;;;1.55;;
28343;SDS011;15597;50.914;6.638;2023-02-28T03:26:58;5.18;;;1.88;;
28343;SDS011;15597;50.914;6.638;2023-02-28T03:29:33;4.63;;;1.88;;
28343;SDS011;15597;50.914;6.638;2023-02-28T03:32:08;7.22;;;1.67;;
28343;SDS011;15597;50.914;6.638;2023-02-28T03:34:48;5.60;;;2.17;;
28343;SDS011;15597;50.914;6.638;2023-02-28T03:37:22;4.72;;;1.80;;
28343;SDS011;15597;50.914;6.638;2023-02-28T03:39:50;5.90;;;1.83;;
28343;SDS011;15597;50.914;6.638;2023-02-28T03:42:22;4.72;;;2.20;;
28343;SDS011;15597;50.914;6.638;2023-02-28T03:44:56;4.72;;;1.90;;
28343;SDS011;15597;50.914;6.638;2023-02-28T03:50:02;6.18;;;2.10;;
28343;SDS011;15597;50.914;6.638;2023-02-28T03:52:46;4.60;;;1.88;;
28343;SDS011;15597;50.914;6.638;2023-02-28T03:55:20;4.80;;;2.17;;
28343;SDS011;15597;50.914;6.638;2023-02-28T03:58:03;5.50;;;2.30;;
28343;SDS011;15597;50.914;6.638;2023-02-28T04:00:38;5.80;;;2.17;;
28343;SDS011;15597;50.914;6.638;2023-02-28T04:03:08;4.88;;;2.13;;
28343;SDS011;15597;50.914;6.638;2023-02-28T04:05:39;4.80;;;1.83;;
28343;SDS011;15597;50.914;6.638;2023-02-28T04:08:14;5.18;;;2.42;;
28343;SDS011;15597;50.914;6.638;2023-02-28T04:10:39;4.07;;;1.65;;
28343;SDS011;15597;50.914;6.638;2023-02-28T04:13:06;4.55;;;1.98;;
28343;SDS011;15597;50.914;6.638;2023-02-28T04:15:32;4.70;;;1.70;;
28343;SDS011;15597;50.914;6.638;2023-02-28T04:17:57;4.78;;;1.80;;
28343;SDS011;15597;50.914;6.638;2023-02-28T04:20:23;4.18;;;2.10;;
28343;SDS011;15597;50.914;6.638;2023-02-28T04:22:48;5.35;;;2.35;;
28343;SDS011;15597;50.914;6.638;2023-02-28T04:25:14;4.70;;;1.92;;
28343;SDS011;15597;50.914;6.638;2023-02-28T04:27:39;5.03;;;2.20;;
28343;SDS011;15597;50.914;6.638;2023-02-28T04:30:05;6.00;;;2.42;;
28343;SDS011;15597;50.914;6.638;2023-02-28T04:32:31;5.90;;;2.47;;
28343;SDS011;15597;50.914;6.638;2023-02-28T04:34:57;4.93;;;2.35;;
28343;SDS011;15597;50.914;6.638;2023-02-28T04:37:22;6.20;;;2.72;;
28343;SDS011;15597;50.914;6.638;2023-02-28T04:39:53;5.53;;;2.38;;
28343;SDS011;15597;50.914;6.638;2023-02-28T04:42:18;6.97;;;2.60;;
28343;SDS011;15597;50.914;6.638;2023-02-28T04:44:44;6.13;;;2.28;;
28343;SDS011;15597;50.914;6.638;2023-02-28T04:47:09;4.93;;;2.03;;
28343;SDS011;15597;50.914;6.638;2023-02-28T04:49:35;5.72;;;2.00;;
28343;SDS011;15597;50.914;6.638;2023-02-28T04:52:00;4.93;;;2.40;;
28343;SDS011;15597;50.914;6.638;2023-02-28T04:54:26;5.50;;;2.53;;
28343;SDS011;15597;50.914;6.638;2023-02-28T04:56:51;5.68;;;2.45;;
28343;SDS011;15597;50.914;6.638;2023-02-28T04:59:17;6.18;;;2.60;;
28343;SDS011;15597;50.914;6.638;2023-02-28T05:01:45;5.95;;;2.55;;
28343;SDS011;15597;50.914;6.638;2023-02-28T05:04:12;6.53;;;2.50;;
28343;SDS011;15597;50.914;6.638;2023-02-28T05:06:38;6.07;;;2.40;;
28343;SDS011;15597;50.914;6.638;2023-02-28T05:09:03;7.82;;;2.70;;
28343;SDS011;15597;50.914;6.638;2023-02-28T05:11:30;7.60;;;2.70;;
28343;SDS011;15597;50.914;6.638;2023-02-28T05:14:03;7.88;;;2.70;;
28343;SDS011;15597;50.914;6.638;2023-02-28T05:16:30;6.40;;;2.30;;
28343;SDS011;15597;50.914;6.638;2023-02-28T05:18:56;6.18;;;2.40;;
28343;SDS011;15597;50.914;6.638;2023-02-28T05:21:32;6.13;;;2.58;;
28343;SDS011;15597;50.914;6.638;2023-02-28T05:24:02;5.88;;;2.63;;
28343;SDS011;15597;50.914;6.638;2023-02-28T05:26:30;8.15;;;2.95;;
28343;SDS011;15597;50.914;6.638;2023-02-28T05:28:56;6.82;;;2.10;;
28343;SDS011;15597;50.914;6.638;2023-02-28T05:31:22;7.40;;;2.50;;
28343;SDS011;15597;50.914;6.638;2023-02-28T05:33:48;4.45;;;1.90;;
28343;SDS011;15597;50.914;6.638;2023-02-28T05:36:14;5.30;;;1.80;;
28343;SDS011;15597;50.914;6.638;2023-02-28T05:38:39;6.13;;;2.40;;
28343;SDS011;15597;50.914;6.638;2023-02-28T05:41:06;6.55;;;2.30;;
28343;SDS011;15597;50.914;6.638;2023-02-28T05:43:32;4.95;;;2.00;;
28343;SDS011;15597;50.914;6.638;2023-02-28T05:45:58;8.30;;;3.42;;
28343;SDS011;15597;50.914;6.638;2023-02-28T05:48:23;11.38;;;4.47;;
28343;SDS011;15597;50.914;6.638;2023-02-28T05:50:49;7.70;;;3.40;;
28343;SDS011;15597;50.914;6.638;2023-02-28T05:53:14;8.50;;;3.30;;
28343;SDS011;15597;50.914;6.638;2023-02-28T05:55:40;6.68;;;3.00;;
28343;SDS011;15597;50.914;6.638;2023-02-28T05:58:06;6.35;;;2.65;;
28343;SDS011;15597;50.914;6.638;2023-02-28T06:00:31;4.50;;;2.28;;
28343;SDS011;15597;50.914;6.638;2023-02-28T06:02:57;7.57;;;2.55;;
28343;SDS011;15597;50.914;6.638;2023-02-28T06:05:26;6.32;;;2.78;;
28343;SDS011;15597;50.914;6.638;2023-02-28T06:07:52;4.95;;;2.08;;
28343;SDS011;15597;50.914;6.638;2023-02-28T06:10:17;6.32;;;2.83;;
28343;SDS011;15597;50.914;6.638;2023-02-28T06:12:43;6.07;;;2.40;;
28343;SDS011;15597;50.914;6.638;2023-02-28T06:15:12;4.75;;;2.42;;
28343;SDS011;15597;50.914;6.638;2023-02-28T06:17:39;5.35;;;1.92;;
28343;SDS011;15597;50.914;6.638;2023-02-28T06:20:06;5.80;;;2.60;;
28343;SDS011;15597;50.914;6.638;2023-02-28T06:22:35;4.85;;;2.50;;
28343;SDS011;15597;50.914;6.638;2023-02-28T06:25:01;7.35;;;2.70;;
28343;SDS011;15597;50.914;6.638;2023-02-28T06:27:27;5.80;;;2.38;;
28343;SDS011;15597;50.914;6.638;2023-02-28T06:29:55;6.47;;;2.63;;
28343;SDS011;15597;50.914;6.638;2023-02-28T06:32:21;6.85;;;2.80;;
28343;SDS011;15597;50.914;6.638;2023-02-28T06:34:47;4.60;;;2.15;;
28343;SDS011;15597;50.914;6.638;2023-02-28T06:37:13;6.18;;;2.08;;
28343;SDS011;15597;50.914;6.638;2023-02-28T06:39:38;3.92;;;1.70;;
28343;SDS011;15597;50.914;6.638;2023-02-28T06:42:04;8.95;;;2.63;;
28343;SDS011;15597;50.914;6.638;2023-02-28T06:44:30;7.93;;;2.80;;
28343;SDS011;15597;50.914;6.638;2023-02-28T06:47:00;4.30;;;1.90;;
28343;SDS011;15597;50.914;6.638;2023-02-28T06:49:29;4.85;;;2.35;;
28343;SDS011;15597;50.914;6.638;2023-02-28T06:51:55;5.20;;;2.55;;
28343;SDS011;15597;50.914;6.638;2023-02-28T06:54:21;6.38;;;2.58;;
28343;SDS011;15597;50.914;6.638;2023-02-28T06:56:46;5.25;;;2.00;;
28343;SDS011;15597;50.914;6.638;2023-02-28T06:59:12;5.78;;;2.78;;
28343;SDS011;15597;50.914;6.638;2023-02-28T07:01:38;8.07;;;2.72;;
28343;SDS011;15597;50.914;6.638;2023-02-28T07:04:04;5.75;;;3.03;;
28343;SDS011;15597;50.914;6.638;2023-02-28T07:06:31;6.13;;;2.83;;
28343;SDS011;15597;50.914;6.638;2023-02-28T07:08:56;6.32;;;2.55;;
28343;SDS011;15597;50.914;6.638;2023-02-28T07:11:22;5.68;;;2.35;;
28343;SDS011;15597;50.914;6.638;2023-02-28T07:13:51;7.00;;;3.00;;
28343;SDS011;15597;50.914;6.638;2023-02-28T07:16:17;7.65;;;2.75;;
28343;SDS011;15597;50.914;6.638;2023-02-28T07:18:43;4.93;;;2.28;;
28343;SDS011;15597;50.914;6.638;2023-02-28T07:21:09;7.30;;;2.85;;
28343;SDS011;15597;50.914;6.638;2023-02-28T07:23:36;4.18;;;2.08;;
28343;SDS011;15597;50.914;6.638;2023-02-28T07:26:06;5.75;;;2.45;;
28343;SDS011;15597;50.914;6.638;2023-02-28T07:28:32;6.45;;;3.40;;
28343;SDS011;15597;50.914;6.638;2023-02-28T07:31:02;5.50;;;2.42;;
28343;SDS011;15597;50.914;6.638;2023-02-28T07:33:31;6.78;;;2.67;;
28343;SDS011;15597;50.914;6.638;2023-02-28T07:36:01;6.18;;;2.22;;
28343;SDS011;15597;50.914;6.638;2023-02-28T07:38:35;4.43;;;1.95;;
28343;SDS011;15597;50.914;6.638;2023-02-28T07:41:02;7.05;;;3.08;;
28343;SDS011;15597;50.914;6.638;2023-02-28T07:43:31;6.32;;;2.58;;
28343;SDS011;15597;50.914;6.638;2023-02-28T07:46:04;3.30;;;1.60;;
28343;SDS011;15597;50.914;6.638;2023-02-28T07:48:31;5.68;;;2.53;;
28343;SDS011;15597;50.914;6.638;2023-02-28T07:50:57;4.78;;;2.30;;
28343;SDS011;15597;50.914;6.638;2023-02-28T07:53:23;5.63;;;2.28;;
28343;SDS011;15597;50.914;6.638;2023-02-28T07:55:50;5.80;;;2.88;;
28343;SDS011;15597;50.914;6.638;2023-02-28T07:58:15;5.43;;;2.40;;
28343;SDS011;15597;50.914;6.638;2023-02-28T08:00:41;5.22;;;2.30;;
28343;SDS011;15597;50.914;6.638;2023-02-28T08:03:08;6.80;;;3.00;;
28343;SDS011;15597;50.914;6.638;2023-02-28T08:05:40;4.22;;;1.83;;
28343;SDS011;15597;50.914;6.638;2023-02-28T08:08:06;5.00;;;2.50;;
28343;SDS011;15597;50.914;6.638;2023-02-28T08:10:36;3.67;;;1.60;;
28343;SDS011;15597;50.914;6.638;2023-02-28T08:13:02;4.13;;;2.08;;
28343;SDS011;15597;50.914;6.638;2023-02-28T08:15:28;6.47;;;2.67;;
28343;SDS011;15597;50.914;6.638;2023-02-28T08:17:53;5.45;;;2.22;;
28343;SDS011;15597;50.914;6.638;2023-02-28T08:20:21;5.40;;;2.33;;
28343;SDS011;15597;50.914;6.638;2023-02-28T08:22:48;3.67;;;1.85;;
28343;SDS011;15597;50.914;6.638;2023-02-28T08:25:13;5.15;;;2.40;;
28343;SDS011;15597;50.914;6.638;2023-02-28T08:27:39;5.70;;;2.08;;
28343;SDS011;15597;50.914;6.638;2023-02-28T08:30:05;5.95;;;2.13;;
28343;SDS011;15597;50.914;6.638;2023-02-28T08:32:32;5.20;;;2.10;;
28343;SDS011;15597;50.914;6.638;2023-02-28T08:34:58;3.30;;;1.70;;
28343;SDS011;15597;50.914;6.638;2023-02-28T08:37:24;4.30;;;1.60;;
28343;SDS011;15597;50.914;6.638;2023-02-28T08:39:50;4.70;;;1.92;;
28343;SDS011;15597;50.914;6.638;2023-02-28T08:42:15;5.45;;;1.73;;
28343;SDS011;15597;50.914;6.638;2023-02-28T08:44:41;4.70;;;2.35;;
28343;SDS011;15597;50.914;6.638;2023-02-28T08:47:06;4.22;;;1.92;;
28343;SDS011;15597;50.914;6.638;2023-02-28T08:49:32;3.58;;;1.48;;
28343;SDS011;15597;50.914;6.638;2023-02-28T08:51:58;4.57;;;1.85;;
28343;SDS011;15597;50.914;6.638;2023-02-28T08:54:23;6.05;;;2.10;;
28343;SDS011;15597;50.914;6.638;2023-02-28T08:56:49;4.72;;;2.45;;
28343;SDS011;15597;50.914;6.638;2023-02-28T08:59:15;4.78;;;2.00;;
28343;SDS011;15597;50.914;6.638;2023-02-28T09:01:41;5.10;;;2.10;;
28343;SDS011;15597;50.914;6.638;2023-02-28T09:04:06;4.63;;;1.80;;
28343;SDS011;15597;50.914;6.638;2023-02-28T09:06:33;4.30;;;1.77;;
28343;SDS011;15597;50.914;6.638;2023-02-28T09:08:59;4.40;;;1.85;;
28343;SDS011;15597;50.914;6.638;2023-02-28T09:11:26;5.00;;;1.80;;
28343;SDS011;15597;50.914;6.638;2023-02-28T09:13:52;4.38;;;1.83;;
28343;SDS011;15597;50.914;6.638;2023-02-28T09:16:18;3.70;;;1.52;;
28343;SDS011;15597;50.914;6.638;2023-02-28T09:18:44;5.15;;;1.88;;
28343;SDS011;15597;50.914;6.638;2023-02-28T09:21:11;4.55;;;1.80;;
28343;SDS011;15597;50.914;6.638;2023-02-28T09:23:44;4.32;;;1.55;;
28343;SDS011;15597;50.914;6.638;2023-02-28T09:26:16;4.80;;;1.90;;
28343;SDS011;15597;50.914;6.638;2023-02-28T09:28:47;3.67;;;1.63;;
28343;SDS011;15597;50.914;6.638;2023-02-28T09:31:14;4.70;;;1.90;;
28343;SDS011;15597;50.914;6.638;2023-02-28T09:33:40;4.32;;;1.90;;
28343;SDS011;15597;50.914;6.638;2023-02-28T09:36:06;4.55;;;1.83;;
28343;SDS011;15597;50.914;6.638;2023-02-28T09:38:32;4.93;;;1.70;;
28343;SDS011;15597;50.914;6.638;2023-02-28T09:40:59;4.35;;;1.70;;
28343;SDS011;15597;50.914;6.638;2023-02-28T09:43:33;3.58;;;1.50;;
28343;SDS011;15597;50.914;6.638;2023-02-28T09:46:05;5.93;;;1.52;;
28343;SDS011;15597;50.914;6.638;2023-02-28T09:48:41;3.92;;;1.50;;
28343;SDS011;15597;50.914;6.638;2023-02-28T09:51:12;5.47;;;1.65;;
28343;SDS011;15597;50.914;6.638;2023-02-28T09:53:51;3.97;;;1.58;;
28343;SDS011;15597;50.914;6.638;2023-02-28T09:56:22;2.95;;;1.50;;
28343;SDS011;15597;50.914;6.638;2023-02-28T09:58:59;3.58;;;1.70;;
28343;SDS011;15597;50.914;6.638;2023-02-28T10:07:17;6.70;;;1.60;;
28343;SDS011;15597;50.914;6.638;2023-02-28T10:09:50;5.13;;;1.67;;
28343;SDS011;15597;50.914;6.638;2023-02-28T10:12:19;4.85;;;1.60;;
28343;SDS011;15597;50.914;6.638;2023-02-28T10:14:45;3.60;;;1.30;;
28343;SDS011;15597;50.914;6.638;2023-02-28T10:17:14;3.80;;;1.30;;
28343;SDS011;15597;50.914;6.638;2023-02-28T10:19:59;3.15;;;1.38;;
28343;SDS011;15597;50.914;6.638;2023-02-28T10:22:53;4.30;;;1.90;;
28343;SDS011;15597;50.914;6.638;2023-02-28T10:25:25;4.35;;;1.58;;
28343;SDS011;15597;50.914;6.638;2023-02-28T10:27:53;3.75;;;1.50;;
28343;SDS011;15597;50.914;6.638;2023-02-28T10:30:43;4.03;;;1.60;;
28343;SDS011;15597;50.914;6.638;2023-02-28T10:33:19;3.85;;;1.73;;
28343;SDS011;15597;50.914;6.638;2023-02-28T10:35:48;3.15;;;1.55;;
28343;SDS011;15597;50.914;6.638;2023-02-28T10:38:17;5.40;;;2.00;;
28343;SDS011;15597;50.914;6.638;2023-02-28T10:40:45;5.03;;;1.70;;
28343;SDS011;15597;50.914;6.638;2023-02-28T10:45:39;3.63;;;1.45;;
28343;SDS011;15597;50.914;6.638;2023-02-28T10:56:01;4.28;;;2.03;;
28343;SDS011;15597;50.914;6.638;2023-02-28T10:58:28;4.78;;;1.80;;
28343;SDS011;15597;50.914;6.638;2023-02-28T11:01:14;6.65;;;1.80;;
28343;SDS011;15597;50.914;6.638;2023-02-28T11:03:42;2.05;;;1.00;;
28343;SDS011;15597;50.914;6.638;2023-02-28T11:06:08;4.45;;;1.70;;
28343;SDS011;15597;50.914;6.638;2023-02-28T11:08:44;4.28;;;2.00;;
28343;SDS011;15597;50.914;6.638;2023-02-28T11:11:12;4.97;;;1.95;;
28343;SDS011;15597;50.914;6.638;2023-02-28T11:13:38;6.30;;;1.60;;
28343;SDS011;15597;50.914;6.638;2023-02-28T11:16:05;5.05;;;2.00;;
28343;SDS011;15597;50.914;6.638;2023-02-28T11:18:36;4.55;;;2.10;;
28343;SDS011;15597;50.914;6.638;2023-02-28T11:21:04;4.00;;;1.70;;
28343;SDS011;15597;50.914;6.638;2023-02-28T11:23:30;3.75;;;1.80;;
28343;SDS011;15597;50.914;6.638;2023-02-28T11:26:03;3.78;;;1.95;;
28343;SDS011;15597;50.914;6.638;2023-02-28T11:28:37;4.05;;;1.83;;
28343;SDS011;15597;50.914;6.638;2023-02-28T11:33:47;4.10;;;1.67;;
28343;SDS011;15597;50.914;6.638;2023-02-28T11:38:50;4.57;;;1.80;;
28343;SDS011;15597;50.914;6.638;2023-02-28T11:41:24;3.80;;;1.73;;
28343;SDS011;15597;50.914;6.638;2023-02-28T11:46:56;4.75;;;1.77;;
28343;SDS011;15597;50.914;6.638;2023-02-28T11:52:13;4.18;;;1.63;;
28343;SDS011;15597;50.914;6.638;2023-02-28T12:02:50;4.38;;;1.50;;
28343;SDS011;15597;50.914;6.638;2023-02-28T12:05:30;4.38;;;1.83;;
28343;SDS011;15597;50.914;6.638;2023-02-28T12:08:05;3.80;;;1.50;;
28343;SDS011;15597;50.914;6.638;2023-02-28T12:10:57;4.72;;;2.20;;
28343;SDS011;15597;50.914;6.638;2023-02-28T12:13:26;4.93;;;2.13;;
28343;SDS011;15597;50.914;6.638;2023-02-28T12:27:14;4.10;;;1.95;;
28343;SDS011;15597;50.914;6.638;2023-02-28T12:29:46;4.75;;;1.98;;
28343;SDS011;15597;50.914;6.638;2023-02-28T12:32:21;5.78;;;2.05;;
28343;SDS011;15597;50.914;6.638;2023-02-28T12:34:56;5.18;;;2.40;;
28343;SDS011;15597;50.914;6.638;2023-02-28T12:40:16;5.10;;;2.25;;
28343;SDS011;15597;50.914;6.638;2023-02-28T12:42:58;5.10;;;2.33;;
28343;SDS011;15597;50.914;6.638;2023-02-28T12:48:08;4.43;;;1.65;;
28343;SDS011;15597;50.914;6.638;2023-02-28T12:50:39;4.75;;;2.40;;
28343;SDS011;15597;50.914;6.638;2023-02-28T12:56:16;5.82;;;1.90;;
28343;SDS011;15597;50.914;6.638;2023-02-28T12:58:52;7.00;;;3.10;;
28343;SDS011;15597;50.914;6.638;2023-02-28T13:01:37;5.50;;;2.53;;
28343;SDS011;15597;50.914;6.638;2023-02-28T13:10:46;5.57;;;2.25;;
28343;SDS011;15597;50.914;6.638;2023-02-28T13:13:20;5.95;;;2.60;;
28343;SDS011;15597;50.914;6.638;2023-02-28T13:18:44;6.20;;;2.72;;
28343;SDS011;15597;50.914;6.638;2023-02-28T13:21:24;5.65;;;2.70;;
28343;SDS011;15597;50.914;6.638;2023-02-28T13:29:02;4.80;;;2.60;;
28343;SDS011;15597;50.914;6.638;2023-02-28T13:34:37;5.45;;;2.38;;
28343;SDS011;15597;50.914;6.638;2023-02-28T13:47:40;5.88;;;2.75;;
28343;SDS011;15597;50.914;6.638;2023-02-28T13:52:45;4.85;;;2.58;;
28343;SDS011;15597;50.914;6.638;2023-02-28T14:05:21;5.25;;;2.40;;
28343;SDS011;15597;50.914;6.638;2023-02-28T14:07:54;4.28;;;2.15;;
28343;SDS011;15597;50.914;6.638;2023-02-28T14:10:27;6.65;;;2.60;;
28343;SDS011;15597;50.914;6.638;2023-02-28T14:15:34;6.25;;;2.45;;
28343;SDS011;15597;50.914;6.638;2023-02-28T14:18:10;6.70;;;2.92;;
28343;SDS011;15597;50.914;6.638;2023-02-28T14:20:42;5.22;;;2.00;;
28343;SDS011;15597;50.914;6.638;2023-02-28T14:23:16;4.85;;;2.70;;
28343;SDS011;15597;50.914;6.638;2023-02-28T14:29:12;6.53;;;2.47;;
28343;SDS011;15597;50.914;6.638;2023-02-28T14:31:58;5.05;;;2.28;;
28343;SDS011;15597;50.914;6.638;2023-02-28T14:37:25;4.13;;;2.20;;
28343;SDS011;15597;50.914;6.638;2023-02-28T14:39:53;6.13;;;2.53;;
28343;SDS011;15597;50.914;6.638;2023-02-28T14:42:27;7.22;;;2.63;;
28343;SDS011;15597;50.914;6.638;2023-02-28T14:44:58;4.40;;;2.13;;
28343;SDS011;15597;50.914;6.638;2023-02-28T14:47:25;5.53;;;2.63;;
28343;SDS011;15597;50.914;6.638;2023-02-28T14:49:54;5.55;;;2.90;;
28343;SDS011;15597;50.914;6.638;2023-02-28T14:52:24;7.20;;;2.72;;
28343;SDS011;15597;50.914;6.638;2023-02-28T14:55:03;5.47;;;2.63;;
28343;SDS011;15597;50.914;6.638;2023-02-28T14:57:34;5.38;;;2.13;;
28343;SDS011;15597;50.914;6.638;2023-02-28T15:02:51;4.75;;;2.45;;
28343;SDS011;15597;50.914;6.638;2023-02-28T15:05:33;7.18;;;2.60;;
28343;SDS011;15597;50.914;6.638;2023-02-28T15:08:21;6.82;;;2.95;;
28343;SDS011;15597;50.914;6.638;2023-02-28T15:10:49;4.75;;;2.45;;
28343;SDS011;15597;50.914;6.638;2023-02-28T15:13:18;6.05;;;2.60;;
28343;SDS011;15597;50.914;6.638;2023-02-28T15:16:19;9.02;;;3.33;;
28343;SDS011;15597;50.914;6.638;2023-02-28T15:21:38;4.35;;;2.10;;
28343;SDS011;15597;50.914;6.638;2023-02-28T15:24:28;4.75;;;2.53;;
28343;SDS011;15597;50.914;6.638;2023-02-28T15:26:58;5.30;;;2.63;;
28343;SDS011;15597;50.914;6.638;2023-02-28T15:29:29;5.57;;;2.55;;
28343;SDS011;15597;50.914;6.638;2023-02-28T15:32:00;6.00;;;3.13;;
28343;SDS011;15597;50.914;6.638;2023-02-28T15:37:00;6.03;;;2.78;;
28343;SDS011;15597;50.914;6.638;2023-02-28T15:39:27;6.05;;;2.97;;
28343;SDS011;15597;50.914;6.638;2023-02-28T15:42:09;4.93;;;2.50;;
28343;SDS011;15597;50.914;6.638;2023-02-28T15:44:36;5.72;;;2.58;;
28343;SDS011;15597;50.914;6.638;2023-02-28T15:47:04;8.43;;;2.80;;
28343;SDS011;15597;50.914;6.638;2023-02-28T15:49:57;7.40;;;3.38;;
28343;SDS011;15597;50.914;6.638;2023-02-28T15:52:29;6.60;;;2.60;;
28343;SDS011;15597;50.914;6.638;2023-02-28T15:55:20;7.00;;;3.72;;
28343;SDS011;15597;50.914;6.638;2023-02-28T15:57:48;6.10;;;3.00;;
28343;SDS011;15597;50.914;6.638;2023-02-28T16:00:23;7.65;;;3.47;;
28343;SDS011;15597;50.914;6.638;2023-02-28T16:02:52;8.70;;;3.80;;
28343;SDS011;15597;50.914;6.638;2023-02-28T16:05:20;8.27;;;3.40;;
28343;SDS011;15597;50.914;6.638;2023-02-28T16:07:56;7.20;;;3.20;;
28343;SDS011;15597;50.914;6.638;2023-02-28T16:10:43;11.32;;;3.10;;
28343;SDS011;15597;50.914;6.638;2023-02-28T16:13:08;5.40;;;2.97;;
28343;SDS011;15597;50.914;6.638;2023-02-28T16:15:41;6.20;;;2.67;;
28343;SDS011;15597;50.914;6.638;2023-02-28T16:18:11;6.38;;;2.83;;
28343;SDS011;15597;50.914;6.638;2023-02-28T16:20:37;5.95;;;2.78;;
28343;SDS011;15597;50.914;6.638;2023-02-28T16:23:05;7.47;;;3.63;;
28343;SDS011;15597;50.914;6.638;2023-02-28T16:25:38;9.30;;;4.18;;
28343;SDS011;15597;50.914;6.638;2023-02-28T16:28:21;8.32;;;3.88;;
28343;SDS011;15597;50.914;6.638;2023-02-28T16:30:53;5.78;;;2.72;;
28343;SDS011;15597;50.914;6.638;2023-02-28T16:33:21;8.82;;;3.28;;
28343;SDS011;15597;50.914;6.638;2023-02-28T16:35:47;8.38;;;4.10;;
28343;SDS011;15597;50.914;6.638;2023-02-28T16:38:12;9.45;;;4.55;;
28343;SDS011;15597;50.914;6.638;2023-02-28T16:40:38;4.68;;;2.67;;
28343;SDS011;15597;50.914;6.638;2023-02-28T16:43:05;10.43;;;4.03;;
28343;SDS011;15597;50.914;6.638;2023-02-28T16:45:34;8.85;;;5.38;;
28343;SDS011;15597;50.914;6.638;2023-02-28T16:48:00;9.70;;;5.28;;
28343;SDS011;15597;50.914;6.638;2023-02-28T16:50:27;7.80;;;4.88;;
28343;SDS011;15597;50.914;6.638;2023-02-28T16:52:55;9.85;;;4.10;;
28343;SDS011;15597;50.914;6.638;2023-02-28T16:55:21;8.18;;;4.45;;
28343;SDS011;15597;50.914;6.638;2023-02-28T16:57:52;8.50;;;4.28;;
28343;SDS011;15597;50.914;6.638;2023-02-28T17:00:20;7.75;;;3.90;;
28343;SDS011;15597;50.914;6.638;2023-02-28T17:02:46;5.57;;;2.58;;
28343;SDS011;15597;50.914;6.638;2023-02-28T17:05:15;6.20;;;3.08;;
28343;SDS011;15597;50.914;6.638;2023-02-28T17:07:43;5.70;;;2.45;;
28343;SDS011;15597;50.914;6.638;2023-02-28T17:12:43;7.25;;;3.17;;
28343;SDS011;15597;50.914;6.638;2023-02-28T17:15:11;8.57;;;4.10;;
28343;SDS011;15597;50.914;6.638;2023-02-28T17:17:38;9.48;;;3.92;;
28343;SDS011;15597;50.914;6.638;2023-02-28T17:20:04;9.05;;;4.45;;
28343;SDS011;15597;50.914;6.638;2023-02-28T17:22:31;12.52;;;7.68;;
28343;SDS011;15597;50.914;6.638;2023-02-28T17:24:59;11.55;;;5.65;;
28343;SDS011;15597;50.914;6.638;2023-02-28T17:27:27;5.93;;;2.85;;